createdAt,value
2019-06-27T00:00:16.640Z,3.23
2019-06-27T00:02:45.094Z,3.50
2019-06-27T00:05:24.132Z,3.30
2019-06-27T00:07:52.712Z,3.90
2019-06-27T00:10:40.504Z,3.30
2019-06-27T00:13:15.717Z,2.80
2019-06-27T00:15:44.445Z,3.53
2019-06-27T00:18:12.929Z,3.60
2019-06-27T00:20:47.453Z,3.57
2019-06-27T00:23:15.928Z,4.40
2019-06-27T00:25:44.419Z,3.40
2019-06-27T00:28:12.874Z,3.57
2019-06-27T00:30:47.522Z,3.70
2019-06-27T00:33:15.971Z,3.40
2019-06-27T00:35:44.425Z,4.07
2019-06-27T00:38:12.859Z,4.47
2019-06-27T00:40:41.329Z,3.47
2019-06-27T00:43:09.836Z,3.97
2019-06-27T00:45:38.287Z,3.90
2019-06-27T00:48:06.739Z,3.87
2019-06-27T00:50:35.324Z,4.43
2019-06-27T00:53:03.776Z,4.37
2019-06-27T00:55:32.212Z,4.10
2019-06-27T00:58:00.927Z,3.97
2019-06-27T01:00:48.705Z,4.23
2019-06-27T01:03:17.163Z,4.13
2019-06-27T01:05:45.675Z,3.93
2019-06-27T01:08:14.142Z,4.30
2019-06-27T01:10:42.644Z,4.17
2019-06-27T01:13:11.105Z,4.57
2019-06-27T01:15:39.549Z,4.27
2019-06-27T01:18:08.068Z,4.47
2019-06-27T01:20:36.509Z,4.00
2019-06-27T01:23:04.976Z,4.10
2019-06-27T01:25:33.416Z,4.00
2019-06-27T01:28:01.848Z,3.77
2019-06-27T01:30:30.439Z,3.90
2019-06-27T01:32:58.880Z,5.40
2019-06-27T01:35:27.408Z,4.57
2019-06-27T01:37:55.850Z,4.90
2019-06-27T01:40:24.371Z,4.30
2019-06-27T01:42:52.811Z,4.63
2019-06-27T01:45:23.053Z,4.10
2019-06-27T01:48:10.905Z,5.57
2019-06-27T01:50:39.422Z,5.30
2019-06-27T01:53:07.888Z,4.57
2019-06-27T01:55:36.349Z,4.77
2019-06-27T01:58:04.784Z,4.33
2019-06-27T02:00:33.389Z,5.30
2019-06-27T02:03:01.972Z,4.80
2019-06-27T02:05:31.472Z,4.00
2019-06-27T02:08:07.795Z,4.57
2019-06-27T02:10:36.327Z,4.27
2019-06-27T02:13:05.098Z,5.17
2019-06-27T02:15:33.626Z,8.37
2019-06-27T02:18:02.125Z,6.77
2019-06-27T02:20:30.848Z,7.30
2019-06-27T02:22:59.451Z,7.07
2019-06-27T02:25:28.044Z,5.80
2019-06-27T02:28:03.796Z,5.20
2019-06-27T02:30:43.638Z,4.80
2019-06-27T02:33:12.337Z,7.10
2019-06-27T02:35:40.916Z,5.93
2019-06-27T02:38:09.618Z,5.20
2019-06-27T02:40:58.909Z,5.43
2019-06-27T02:43:27.997Z,5.23
2019-06-27T02:45:56.497Z,5.23
2019-06-27T02:48:25.037Z,5.40
2019-06-27T02:50:53.559Z,5.40
2019-06-27T02:53:22.003Z,5.20
2019-06-27T02:55:50.444Z,4.97
2019-06-27T02:58:30.885Z,4.90
2019-06-27T03:00:49.056Z,4.67
2019-06-27T03:03:17.522Z,5.30
2019-06-27T03:05:46.031Z,4.90
2019-06-27T03:08:14.855Z,4.53
2019-06-27T03:10:43.288Z,5.07
2019-06-27T03:13:11.815Z,5.50
2019-06-27T03:15:40.266Z,4.80
2019-06-27T03:18:08.866Z,5.50
2019-06-27T03:20:37.407Z,5.77
2019-06-27T03:23:05.993Z,6.73
2019-06-27T03:25:34.482Z,6.30
2019-06-27T03:28:22.305Z,6.10
2019-06-27T03:30:51.842Z,5.43
2019-06-27T03:33:20.293Z,5.90
2019-06-27T03:35:48.777Z,6.53
2019-06-27T03:38:17.354Z,5.90
2019-06-27T03:40:45.876Z,5.50
2019-06-27T03:43:14.389Z,5.30
2019-06-27T03:45:42.841Z,4.47
2019-06-27T03:48:11.276Z,4.10
2019-06-27T03:50:39.721Z,4.13
2019-06-27T03:53:08.160Z,4.83
2019-06-27T03:55:36.647Z,4.50
2019-06-27T03:58:05.167Z,5.30
2019-06-27T04:00:34.289Z,4.40
2019-06-27T04:03:03.026Z,5.23
2019-06-27T04:05:31.737Z,6.77
2019-06-27T04:08:02.324Z,5.53
2019-06-27T04:10:37.821Z,7.00
2019-06-27T04:13:12.023Z,7.57
2019-06-27T04:15:40.489Z,8.50
2019-06-27T04:18:08.932Z,8.37
2019-06-27T04:20:37.591Z,9.80
2019-06-27T04:23:06.194Z,10.03
2019-06-27T04:25:34.708Z,9.50
2019-06-27T04:28:03.242Z,9.03
2019-06-27T04:30:31.878Z,9.80
2019-06-27T04:33:00.386Z,9.53
2019-06-27T04:35:28.839Z,11.13
2019-06-27T04:37:57.297Z,9.90
2019-06-27T04:40:25.821Z,10.50
2019-06-27T04:42:54.350Z,11.40
2019-06-27T04:45:22.799Z,11.43
2019-06-27T04:47:51.353Z,12.40
2019-06-27T04:50:19.871Z,12.07
2019-06-27T04:52:48.335Z,14.10
2019-06-27T04:55:16.846Z,13.20
2019-06-27T04:57:45.309Z,14.23
2019-06-27T05:00:19.426Z,13.17
2019-06-27T05:02:47.960Z,13.20
2019-06-27T05:05:16.413Z,15.27
2019-06-27T05:07:44.869Z,15.00
2019-06-27T05:10:13.390Z,14.13
2019-06-27T05:12:41.937Z,15.67
2019-06-27T05:15:10.610Z,16.67
2019-06-27T05:17:39.067Z,18.80
2019-06-27T05:20:07.579Z,17.00
2019-06-27T05:22:36.044Z,18.10
2019-06-27T05:25:04.734Z,17.80
2019-06-27T05:27:33.259Z,16.50
2019-06-27T05:30:09.503Z,17.27
2019-06-27T05:32:36.061Z,17.20
2019-06-27T05:35:06.080Z,18.50
2019-06-27T05:37:34.524Z,16.83
2019-06-27T05:40:04.126Z,16.30
2019-06-27T05:42:33.699Z,15.20
2019-06-27T05:45:02.171Z,16.60
2019-06-27T05:47:30.624Z,16.83
2019-06-27T05:49:59.103Z,15.10
2019-06-27T05:52:27.616Z,14.97
2019-06-27T05:54:56.080Z,17.57
2019-06-27T05:57:24.659Z,17.43
2019-06-27T05:59:53.210Z,18.10
2019-06-27T06:02:21.659Z,16.87
2019-06-27T06:04:50.122Z,16.93
2019-06-27T06:07:18.671Z,18.40
2019-06-27T06:09:47.341Z,16.10
2019-06-27T06:12:15.890Z,18.90
2019-06-27T06:14:44.411Z,18.60
2019-06-27T06:17:13.938Z,18.93
2019-06-27T06:19:42.401Z,17.20
2019-06-27T06:22:13.681Z,21.00
2019-06-27T06:24:42.196Z,18.23
2019-06-27T06:27:10.647Z,19.07
2019-06-27T06:29:39.088Z,16.70
2019-06-27T06:32:07.624Z,16.17
2019-06-27T06:34:55.401Z,16.30
2019-06-27T06:37:23.872Z,17.50
2019-06-27T06:39:52.392Z,17.97
2019-06-27T06:42:20.890Z,16.00
2019-06-27T06:44:49.329Z,19.00
2019-06-27T06:47:17.977Z,18.77
2019-06-27T06:50:06.020Z,17.53
2019-06-27T06:52:34.557Z,20.20
2019-06-27T06:55:03.372Z,17.60
2019-06-27T06:57:31.838Z,15.30
2019-06-27T07:00:00.421Z,14.53
2019-06-27T07:02:28.916Z,15.40
2019-06-27T07:04:57.401Z,15.23
2019-06-27T07:07:26.019Z,16.17
2019-06-27T07:09:54.860Z,12.50
2019-06-27T07:12:25.408Z,11.50
2019-06-27T07:15:13.852Z,11.90
2019-06-27T07:17:42.395Z,11.07
2019-06-27T07:20:12.071Z,11.80
2019-06-27T07:22:59.865Z,10.93
2019-06-27T07:25:28.316Z,9.70
2019-06-27T07:27:56.806Z,11.73
2019-06-27T07:30:25.292Z,10.53
2019-06-27T07:32:53.760Z,9.77
2019-06-27T07:35:22.369Z,9.33
2019-06-27T07:37:50.942Z,9.00
2019-06-27T07:40:19.444Z,9.00
2019-06-27T07:42:47.889Z,7.80
2019-06-27T07:45:16.404Z,9.27
2019-06-27T07:47:50.663Z,8.30
2019-06-27T07:50:20.181Z,8.03
2019-06-27T07:52:48.740Z,8.83
2019-06-27T07:55:20.260Z,12.90
2019-06-27T07:57:48.722Z,10.87
2019-06-27T08:00:17.767Z,8.50
2019-06-27T08:02:46.361Z,31.57
2019-06-27T08:05:16.338Z,17.00
2019-06-27T08:07:44.804Z,14.00
2019-06-27T08:10:20.088Z,15.70
2019-06-27T08:12:48.650Z,15.83
2019-06-27T08:15:17.200Z,16.30
2019-06-27T08:17:45.804Z,19.00
2019-06-27T08:20:14.883Z,15.00
2019-06-27T08:22:43.363Z,14.40
2019-06-27T08:25:12.255Z,18.27
2019-06-27T08:27:40.864Z,15.90
2019-06-27T08:30:10.050Z,17.50
2019-06-27T08:32:38.700Z,14.23
2019-06-27T08:35:07.514Z,12.30
2019-06-27T08:37:36.168Z,14.10
2019-06-27T08:40:06.721Z,14.37
2019-06-27T08:42:35.168Z,13.37
2019-06-27T08:45:04.875Z,16.03
2019-06-27T08:47:33.400Z,16.40
2019-06-27T08:50:01.986Z,32.47
2019-06-27T08:52:30.435Z,16.87
2019-06-27T08:54:58.899Z,17.83
2019-06-27T08:57:27.345Z,11.27
2019-06-27T08:59:55.816Z,10.80
2019-06-27T09:02:24.336Z,11.70
2019-06-27T09:04:52.891Z,11.87
2019-06-27T09:07:21.405Z,11.80
2019-06-27T09:09:49.869Z,10.90
2019-06-27T09:12:18.384Z,10.20
2019-06-27T09:14:46.929Z,11.20
2019-06-27T09:17:15.368Z,10.50
2019-06-27T09:19:43.923Z,13.87
2019-06-27T09:22:12.434Z,11.90
2019-06-27T09:24:40.904Z,11.07
2019-06-27T09:27:09.351Z,10.40
2019-06-27T09:29:37.844Z,9.17
2019-06-27T09:32:06.395Z,10.80
2019-06-27T09:34:34.856Z,8.70
2019-06-27T09:37:03.338Z,8.70
2019-06-27T09:39:31.849Z,7.73
2019-06-27T09:42:00.458Z,7.00
2019-06-27T09:44:29.108Z,6.20
2019-06-27T09:46:57.703Z,6.50
2019-06-27T09:49:26.209Z,6.70
2019-06-27T09:51:54.655Z,6.97
2019-06-27T09:54:23.107Z,27.53
2019-06-27T09:56:51.605Z,6.83
2019-06-27T09:59:20.048Z,16.03
2019-06-27T10:01:48.494Z,5.87
2019-06-27T10:04:16.923Z,6.27
2019-06-27T10:06:45.380Z,5.87
2019-06-27T10:09:13.812Z,5.50
2019-06-27T10:11:42.346Z,5.00
2019-06-27T10:14:10.789Z,4.90
2019-06-27T10:16:39.243Z,5.40
2019-06-27T10:19:07.683Z,5.80
2019-06-27T10:21:36.183Z,5.70
2019-06-27T10:24:04.783Z,5.90
2019-06-27T10:26:33.319Z,5.10
2019-06-27T10:29:01.875Z,5.07
2019-06-27T10:31:30.414Z,4.53
2019-06-27T10:33:58.925Z,4.40
2019-06-27T10:36:27.360Z,4.23
2019-06-27T10:38:55.827Z,4.27
2019-06-27T10:41:24.333Z,3.87
2019-06-27T10:43:52.948Z,3.63
2019-06-27T10:46:21.430Z,3.67
2019-06-27T10:48:49.904Z,3.50
2019-06-27T10:51:18.409Z,3.47
2019-06-27T10:53:46.964Z,3.20
2019-06-27T10:56:15.476Z,2.67
2019-06-27T10:58:43.977Z,3.90
2019-06-27T11:01:12.479Z,3.80
2019-06-27T11:03:40.969Z,4.07
2019-06-27T11:06:09.480Z,4.20
2019-06-27T11:08:37.995Z,3.20
2019-06-27T11:11:06.430Z,3.23
2019-06-27T11:13:34.963Z,3.70
2019-06-27T11:16:03.482Z,6.83
2019-06-27T11:18:31.949Z,11.03
2019-06-27T11:21:00.379Z,3.80
2019-06-27T11:23:28.900Z,2.50
2019-06-27T11:25:57.362Z,2.60
2019-06-27T11:28:25.896Z,3.43
2019-06-27T11:30:54.433Z,2.43
2019-06-27T11:33:32.749Z,2.43
2019-06-27T11:35:53.221Z,2.53
2019-06-27T11:38:41.097Z,2.57
2019-06-27T11:41:09.771Z,2.03
2019-06-27T11:43:38.217Z,2.33
2019-06-27T11:46:08.824Z,2.60
2019-06-27T11:48:36.930Z,3.63
2019-06-27T11:51:05.449Z,2.33
2019-06-27T11:53:33.972Z,2.70
2019-06-27T11:56:02.507Z,2.03
2019-06-27T11:58:30.961Z,2.60
2019-06-27T12:00:59.507Z,2.30
2019-06-27T12:03:28.097Z,2.30
2019-06-27T12:05:56.561Z,2.00
2019-06-27T12:08:25.072Z,2.87
2019-06-27T12:10:53.516Z,2.10
2019-06-27T12:13:22.033Z,2.93
2019-06-27T12:15:51.635Z,2.20
2019-06-27T12:18:20.486Z,2.30
2019-06-27T12:20:49.920Z,2.33
2019-06-27T12:23:18.418Z,2.10
2019-06-27T12:25:46.897Z,4.23
2019-06-27T12:28:15.599Z,2.40
2019-06-27T12:30:44.132Z,2.20
2019-06-27T12:33:12.583Z,2.63
2019-06-27T12:35:41.090Z,3.10
2019-06-27T12:38:09.565Z,2.47
2019-06-27T12:40:38.064Z,2.63
2019-06-27T12:43:06.586Z,2.03
2019-06-27T12:45:35.044Z,1.67
2019-06-27T12:48:07.027Z,2.07
2019-06-27T12:50:33.823Z,2.37
2019-06-27T12:53:02.285Z,1.60
2019-06-27T12:55:30.731Z,2.10
2019-06-27T12:58:01.281Z,2.20
2019-06-27T13:00:32.605Z,2.50
2019-06-27T13:03:02.171Z,2.33
2019-06-27T13:05:30.714Z,2.60
2019-06-27T13:07:59.177Z,2.10
2019-06-27T13:10:40.931Z,2.70
2019-06-27T13:13:09.420Z,2.93
2019-06-27T13:15:37.932Z,2.50
2019-06-27T13:18:06.492Z,2.83
2019-06-27T13:20:34.933Z,2.60
2019-06-27T13:23:03.453Z,2.77
2019-06-27T13:25:34.343Z,2.50
2019-06-27T13:28:02.140Z,2.90
2019-06-27T13:30:30.589Z,3.73
2019-06-27T13:32:59.125Z,2.90
2019-06-27T13:35:27.647Z,2.60
2019-06-27T13:37:56.105Z,2.23
2019-06-27T13:40:24.629Z,2.13
2019-06-27T13:42:55.523Z,2.47
2019-06-27T13:45:26.498Z,2.42
2019-06-27T13:47:53.630Z,2.27
2019-06-27T13:50:22.279Z,3.05
2019-06-27T13:52:54.479Z,2.58
2019-06-27T13:55:24.002Z,2.08
2019-06-27T13:57:51.308Z,3.25
2019-06-27T14:00:22.922Z,2.85
2019-06-27T14:02:51.424Z,1.98
2019-06-27T14:05:19.880Z,2.35
2019-06-27T14:07:48.363Z,1.87
2019-06-27T14:10:16.952Z,3.22
2019-06-27T14:12:45.463Z,2.45
2019-06-27T14:15:14.405Z,2.58
2019-06-27T14:17:44.089Z,2.45
2019-06-27T14:20:13.350Z,2.67
2019-06-27T14:22:41.794Z,2.52
2019-06-27T14:25:10.314Z,2.90
2019-06-27T14:27:38.775Z,2.90
2019-06-27T14:30:10.528Z,2.70
2019-06-27T14:32:39.079Z,3.07
2019-06-27T14:35:15.621Z,4.10
2019-06-27T14:37:38.231Z,3.53
2019-06-27T14:40:08.622Z,3.30
2019-06-27T14:42:37.195Z,3.03
2019-06-27T14:45:07.461Z,2.53
2019-06-27T14:47:36.073Z,5.40
2019-06-27T14:50:05.754Z,2.60
2019-06-27T14:52:35.075Z,2.53
2019-06-27T14:55:05.596Z,2.80
2019-06-27T14:57:34.413Z,3.83
2019-06-27T15:00:03.617Z,3.17
2019-06-27T15:02:32.146Z,8.10
2019-06-27T15:05:00.583Z,4.70
2019-06-27T15:07:29.068Z,2.30
2019-06-27T15:09:57.524Z,2.80
2019-06-27T15:12:26.038Z,2.73
2019-06-27T15:14:55.529Z,3.47
2019-06-27T15:17:24.007Z,2.50
2019-06-27T15:19:52.523Z,4.47
2019-06-27T15:22:21.064Z,4.00
2019-06-27T15:24:49.543Z,2.97
2019-06-27T15:27:18.190Z,2.70
2019-06-27T15:29:46.736Z,2.30
2019-06-27T15:32:15.249Z,2.00
2019-06-27T15:34:43.698Z,2.60
2019-06-27T15:37:12.212Z,2.93
2019-06-27T15:39:40.728Z,2.47
2019-06-27T15:42:09.245Z,2.43
2019-06-27T15:44:37.753Z,3.00
2019-06-27T15:47:06.314Z,3.17
2019-06-27T15:49:34.824Z,2.33
2019-06-27T15:52:03.275Z,2.30
2019-06-27T15:54:31.737Z,6.07
2019-06-27T15:57:00.190Z,2.53
2019-06-27T15:59:28.861Z,2.50
2019-06-27T16:01:57.433Z,2.20
2019-06-27T16:04:33.718Z,2.90
2019-06-27T16:06:56.147Z,2.57
2019-06-27T16:09:24.621Z,3.30
2019-06-27T16:11:53.068Z,3.20
2019-06-27T16:14:21.612Z,4.17
2019-06-27T16:16:50.141Z,7.13
2019-06-27T16:19:18.678Z,3.67
2019-06-27T16:21:47.316Z,3.47
2019-06-27T16:24:15.784Z,3.27
2019-06-27T16:26:44.236Z,2.77
2019-06-27T16:29:14.752Z,2.30
2019-06-27T16:31:43.278Z,3.10
2019-06-27T16:34:11.729Z,3.03
2019-06-27T16:36:40.182Z,2.90
2019-06-27T16:39:08.833Z,3.13
2019-06-27T16:41:37.297Z,3.43
2019-06-27T16:44:05.827Z,2.80
2019-06-27T16:46:34.428Z,2.70
2019-06-27T16:49:02.858Z,2.73
2019-06-27T16:51:31.408Z,2.80
2019-06-27T16:53:59.849Z,3.10
2019-06-27T16:56:28.354Z,2.73
2019-06-27T16:58:56.879Z,3.20
2019-06-27T17:01:25.513Z,2.37
2019-06-27T17:03:54.006Z,3.53
2019-06-27T17:06:22.525Z,2.60
2019-06-27T17:08:51.037Z,8.97
2019-06-27T17:11:25.487Z,4.50
2019-06-27T17:13:53.987Z,5.60
2019-06-27T17:16:22.537Z,6.40
2019-06-27T17:18:51.045Z,3.40
2019-06-27T17:21:19.531Z,2.93
2019-06-27T17:23:47.994Z,3.33
2019-06-27T17:26:16.485Z,2.70
2019-06-27T17:28:45.030Z,3.23
2019-06-27T17:31:13.528Z,6.10
2019-06-27T17:33:41.989Z,3.30
2019-06-27T17:36:10.675Z,4.40
2019-06-27T17:38:39.146Z,2.73
2019-06-27T17:41:07.591Z,2.40
2019-06-27T17:43:36.176Z,8.60
2019-06-27T17:46:04.684Z,3.63
2019-06-27T17:48:33.211Z,2.30
2019-06-27T17:51:01.953Z,2.40
2019-06-27T17:53:30.498Z,2.50
2019-06-27T17:55:58.946Z,2.10
2019-06-27T17:58:27.464Z,11.37
2019-06-27T18:00:55.924Z,3.10
2019-06-27T18:03:30.380Z,1.90
2019-06-27T18:05:58.861Z,2.07
2019-06-27T18:08:27.631Z,3.23
2019-06-27T18:10:56.138Z,2.57
2019-06-27T18:13:24.710Z,1.97
2019-06-27T18:15:53.334Z,4.43
2019-06-27T18:18:22.097Z,3.40
2019-06-27T18:21:02.222Z,5.20
2019-06-27T18:23:30.708Z,5.67
2019-06-27T18:25:59.232Z,2.27
2019-06-27T18:28:27.748Z,3.77
2019-06-27T18:30:58.284Z,2.60
2019-06-27T18:33:26.912Z,4.87
2019-06-27T18:35:55.495Z,3.47
2019-06-27T18:38:30.071Z,4.00
2019-06-27T18:41:00.188Z,2.20
2019-06-27T18:43:28.695Z,4.80
2019-06-27T18:45:57.367Z,5.93
2019-06-27T18:48:25.796Z,2.47
2019-06-27T18:50:54.313Z,2.60
2019-06-27T18:53:22.948Z,1.87
2019-06-27T18:55:51.600Z,2.30
2019-06-27T18:58:20.182Z,2.83
2019-06-27T19:00:48.803Z,2.70
2019-06-27T19:03:17.367Z,2.30
2019-06-27T19:05:45.986Z,2.87
2019-06-27T19:08:14.599Z,3.07
2019-06-27T19:10:43.045Z,9.80
2019-06-27T19:13:11.577Z,3.17
2019-06-27T19:15:40.164Z,5.33
2019-06-27T19:18:10.492Z,5.40
2019-06-27T19:20:40.636Z,5.30
2019-06-27T19:23:13.865Z,4.17
2019-06-27T19:26:01.876Z,7.70
2019-06-27T19:28:30.392Z,10.57
2019-06-27T19:30:58.863Z,4.70
2019-06-27T19:33:27.458Z,3.13
2019-06-27T19:35:55.894Z,4.23
2019-06-27T19:38:24.451Z,4.53
2019-06-27T19:40:52.935Z,3.63
2019-06-27T19:43:28.178Z,3.60
2019-06-27T19:45:54.915Z,3.30
2019-06-27T19:48:23.499Z,3.33
2019-06-27T19:50:52.976Z,3.50
2019-06-27T19:53:21.746Z,6.63
2019-06-27T19:55:50.276Z,4.30
2019-06-27T19:58:18.877Z,3.00
2019-06-27T20:00:47.333Z,2.67
2019-06-27T20:03:15.776Z,2.60
2019-06-27T20:05:44.244Z,3.13
2019-06-27T20:08:18.951Z,2.07
2019-06-27T20:10:43.512Z,3.97
2019-06-27T20:13:12.070Z,2.50
2019-06-27T20:15:40.595Z,2.37
2019-06-27T20:18:09.181Z,2.87
2019-06-27T20:20:37.679Z,2.53
2019-06-27T20:23:06.141Z,3.80
2019-06-27T20:25:34.707Z,3.23
2019-06-27T20:28:03.249Z,2.53
2019-06-27T20:30:31.945Z,2.87
2019-06-27T20:33:00.408Z,3.93
2019-06-27T20:35:28.921Z,4.27
2019-06-27T20:37:57.450Z,5.00
2019-06-27T20:40:26.260Z,4.47
2019-06-27T20:42:55.923Z,4.60
2019-06-27T20:45:24.750Z,17.23
2019-06-27T20:47:53.624Z,3.80
2019-06-27T20:50:23.352Z,5.07
2019-06-27T20:52:51.872Z,5.97
2019-06-27T20:55:20.518Z,3.50
2019-06-27T20:57:49.278Z,3.40
2019-06-27T21:00:18.038Z,4.77
2019-06-27T21:02:46.581Z,3.20
2019-06-27T21:05:15.306Z,2.90
2019-06-27T21:07:43.744Z,3.43
2019-06-27T21:10:31.605Z,2.20
2019-06-27T21:13:00.216Z,2.50
2019-06-27T21:15:29.138Z,2.30
2019-06-27T21:17:57.685Z,2.30
2019-06-27T21:20:26.340Z,3.63
2019-06-27T21:22:54.908Z,2.57
2019-06-27T21:25:23.607Z,14.50
2019-06-27T21:27:52.048Z,2.80
2019-06-27T21:30:20.748Z,8.63
2019-06-27T21:32:49.216Z,6.50
2019-06-27T21:35:17.750Z,18.20
2019-06-27T21:37:46.320Z,3.60
2019-06-27T21:40:15.420Z,15.23
2019-06-27T21:42:43.868Z,8.03
2019-06-27T21:45:16.848Z,2.60
2019-06-27T21:47:45.274Z,3.40
2019-06-27T21:50:14.093Z,3.90
2019-06-27T21:52:42.539Z,6.77
2019-06-27T21:55:16.110Z,5.43
2019-06-27T21:57:45.547Z,5.07
2019-06-27T22:00:14.774Z,7.87
2019-06-27T22:02:43.275Z,6.17
2019-06-27T22:05:13.340Z,3.13
2019-06-27T22:07:42.031Z,3.03
2019-06-27T22:10:10.928Z,4.00
2019-06-27T22:12:58.822Z,4.17
2019-06-27T22:15:27.388Z,4.80
2019-06-27T22:17:55.990Z,3.17
2019-06-27T22:20:24.700Z,2.67
2019-06-27T22:22:53.287Z,3.77
2019-06-27T22:25:35.977Z,3.40
2019-06-27T22:27:53.021Z,7.50
2019-06-27T22:30:21.715Z,3.20
2019-06-27T22:32:50.256Z,4.40
2019-06-27T22:35:18.830Z,3.33
2019-06-27T22:38:24.806Z,4.90
2019-06-27T22:41:11.653Z,13.30
2019-06-27T22:43:58.614Z,2.50
2019-06-27T22:46:45.083Z,2.90
2019-06-27T22:49:14.205Z,3.27
2019-06-27T22:51:53.891Z,2.90
2019-06-27T22:54:29.789Z,3.37
2019-06-27T22:56:58.328Z,3.90
2019-06-27T22:59:26.774Z,3.20
2019-06-27T23:01:58.992Z,3.17
2019-06-27T23:04:27.443Z,3.93
2019-06-27T23:06:56.091Z,11.17
2019-06-27T23:09:24.627Z,2.33
2019-06-27T23:11:53.144Z,3.30
2019-06-27T23:14:21.617Z,3.90
2019-06-27T23:16:50.115Z,3.10
2019-06-27T23:19:18.585Z,3.17
2019-06-27T23:21:56.145Z,2.70
2019-06-27T23:24:24.637Z,2.63
2019-06-27T23:26:53.093Z,2.57
2019-06-27T23:29:21.664Z,2.60
2019-06-27T23:31:50.157Z,2.30
2019-06-27T23:34:18.638Z,2.30
2019-06-27T23:36:47.205Z,2.03
2019-06-27T23:39:15.651Z,2.50
2019-06-27T23:44:28.432Z,2.07
2019-06-27T23:47:16.258Z,2.83
2019-06-27T23:49:48.574Z,2.27
2019-06-27T23:52:17.059Z,2.27
2019-06-27T23:54:45.594Z,2.30
2019-06-27T23:57:14.112Z,2.40
2019-06-27T23:59:42.632Z,2.13
